Darstellungsparameter: Aktuell verwendete Einstellungen:
Skalierung der Graphiken ... ?
xyx+y,   Skalierungsfaktor:      Skalierung: Modus: x, Faktor: 1
Darstellungszeitraum ... ?
Vom - - bis: - -   Zeitraum: 24.05.2015 - 24.05.2015
Min/Max/Avg-Anzeige ... ?
Zeige MMA aktuell
Zeige MMA Monat
Zeige MMA alles
Zeige --A aktuell
Zeige --A Monat
Zeige --A alles
Keine MMA-Anzeige
MMA:
Minimum Maximum Average (ber die Originaldaten)
MMA-Basis: 24.05.2015 - 24.05.2015
Quicknavigation für Darstellung... ?
Tage:      1T, 2T, 3T, 5T -1T -2T -3T -5T +1T +2T +3T +5T
Wochen: 1W, 2W, 3W -1W -2W -3W +1W +2W +3W
Monate: 1M, 3M, 6M -1M -3M -6M +1M +3M +6M
Jahre:    1J, 3J, 5J, 10J -1J -3J -5J -10J +1J +3J +5J +10J
Nutze für die Darstellung ... ?
Originaldaten oder Mittelwerte auf ...
Stundenbasis Tagesbasis Wochenbasis
Monatsbasis Jahresbasis      Datenbasis: Original-Daten
Darstellen als:
Statistik (Auto) Statistik J:M      Darstellung:
Zur Graphik,    zurück zur Übersicht aller Sensoren.
 
Tabellarische Datenbersicht: ?
 
Sensor: Nr:Datum:Temp:Abs-Feuchte:Windchill:Wind:
Aussen-T/F 1 24-05-2015 00:00:00 15.2 C 10.64 g/m*3 15.2 C 1.6 km/h
2 24-05-2015 00:05:00 15.2 C 10.64 g/m*3 15.2 C 3.2 km/h
3 24-05-2015 00:10:00 15.1 C 10.58 g/m*3 15.1 C 3.2 km/h
4 24-05-2015 00:15:00 15.1 C 10.58 g/m*3 15.1 C 3.2 km/h
5 24-05-2015 00:20:00 15 C 10.51 g/m*3 15 C 6.4 km/h
6 24-05-2015 00:25:00 14.9 C 10.58 g/m*3 14.9 C 4.8 km/h
7 24-05-2015 00:30:00 14.9 C 10.58 g/m*3 14.9 C 4.8 km/h
8 24-05-2015 00:35:00 14.9 C 10.58 g/m*3 14.9 C 3.2 km/h
9 24-05-2015 00:40:00 14.8 C 10.51 g/m*3 14.8 C 3.2 km/h
10 24-05-2015 00:45:00 14.8 C 10.51 g/m*3 14.8 C 1.6 km/h
11 24-05-2015 00:50:00 14.8 C 10.51 g/m*3 14.8 C 3.2 km/h
12 24-05-2015 00:55:00 14.7 C 10.45 g/m*3 14.7 C 0 km/h
13 24-05-2015 01:00:00 14.7 C 10.58 g/m*3 14.7 C 0 km/h
14 24-05-2015 01:05:00 14.6 C 10.51 g/m*3 14.6 C 1.6 km/h
15 24-05-2015 01:10:00 14.6 C 10.51 g/m*3 14.6 C 4.8 km/h
16 24-05-2015 01:15:00 14.6 C 10.51 g/m*3 14.6 C 0 km/h
17 24-05-2015 01:20:00 14.5 C 10.45 g/m*3 14.5 C 0 km/h
18 24-05-2015 01:25:00 14.5 C 10.45 g/m*3 14.5 C 4.8 km/h
19 24-05-2015 01:30:00 14.5 C 10.45 g/m*3 14.5 C 1.6 km/h
20 24-05-2015 01:35:00 14.5 C 10.45 g/m*3 14.5 C 1.6 km/h
21 24-05-2015 01:40:00 14.5 C 10.45 g/m*3 14.5 C 1.6 km/h
22 24-05-2015 01:45:00 14.4 C 10.38 g/m*3 14.4 C 3.2 km/h
23 24-05-2015 01:50:00 14.4 C 10.38 g/m*3 14.4 C 1.6 km/h
24 24-05-2015 01:55:00 14.4 C 10.38 g/m*3 14.4 C 3.2 km/h
25 24-05-2015 02:00:00 14.4 C 10.38 g/m*3 14.4 C 1.6 km/h
Sensor: Nr:Datum:Temp:Abs-Feuchte:Windchill:Wind:
Aussen-T/F 26 24-05-2015 02:05:00 14.3 C 10.32 g/m*3 14.3 C 0 km/h
27 24-05-2015 02:10:00 14.3 C 10.32 g/m*3 14.3 C 1.6 km/h
28 24-05-2015 02:15:00 14.3 C 10.32 g/m*3 14.3 C 4.8 km/h
29 24-05-2015 02:20:00 14.3 C 10.32 g/m*3 14.3 C 1.6 km/h
30 24-05-2015 02:25:00 14.3 C 10.32 g/m*3 14.3 C 3.2 km/h
31 24-05-2015 02:30:00 14.2 C 10.26 g/m*3 14.2 C 4.8 km/h
32 24-05-2015 02:35:00 14.2 C 10.26 g/m*3 14.2 C 4.8 km/h
33 24-05-2015 02:40:00 14.2 C 10.26 g/m*3 14.2 C 4.8 km/h
34 24-05-2015 02:45:00 14.2 C 10.26 g/m*3 14.2 C 4.8 km/h
35 24-05-2015 02:50:00 14.1 C 10.19 g/m*3 14.1 C 3.2 km/h
36 24-05-2015 02:55:00 14.1 C 10.19 g/m*3 14.1 C 4.8 km/h
37 24-05-2015 03:00:00 14.1 C 10.19 g/m*3 14.1 C 3.2 km/h
38 24-05-2015 03:05:00 14.1 C 10.19 g/m*3 14.1 C 4.8 km/h
39 24-05-2015 03:10:00 14.1 C 10.19 g/m*3 14.1 C 3.2 km/h
40 24-05-2015 03:15:00 14.1 C 10.19 g/m*3 14.1 C 4.8 km/h
41 24-05-2015 03:20:00 14 C 10.13 g/m*3 14 C 1.6 km/h
42 24-05-2015 03:25:00 14 C 10.25 g/m*3 14 C 3.2 km/h
43 24-05-2015 03:30:00 14 C 10.25 g/m*3 14 C 0 km/h
44 24-05-2015 03:35:00 13.9 C 10.19 g/m*3 13.9 C 1.6 km/h
45 24-05-2015 03:40:00 13.9 C 10.19 g/m*3 13.9 C 0 km/h
46 24-05-2015 03:45:00 13.8 C 10.25 g/m*3 13.8 C 0 km/h
47 24-05-2015 03:50:00 13.8 C 10.25 g/m*3 13.8 C 0 km/h
48 24-05-2015 03:55:00 13.7 C 10.18 g/m*3 13.7 C 0 km/h
49 24-05-2015 04:00:00 13.5 C 10.06 g/m*3 13.5 C 0 km/h
50 24-05-2015 04:05:00 13.4 C 10.11 g/m*3 13.4 C 0 km/h
Sensor: Nr:Datum:Temp:Abs-Feuchte:Windchill:Wind:
Aussen-T/F 51 24-05-2015 04:10:00 13.3 C 10.05 g/m*3 13.3 C 0 km/h
52 24-05-2015 04:15:00 13.3 C 10.17 g/m*3 13.3 C 0 km/h
53 24-05-2015 04:20:00 13.2 C 10.1 g/m*3 13.2 C 0 km/h
54 24-05-2015 04:25:00 13.2 C 10.1 g/m*3 13.2 C 0 km/h
55 24-05-2015 04:30:00 13.2 C 10.1 g/m*3 13.2 C 0 km/h
56 24-05-2015 04:35:00 13.2 C 10.1 g/m*3 13.2 C 0 km/h
57 24-05-2015 04:40:00 13.2 C 10.1 g/m*3 13.2 C 3.2 km/h
58 24-05-2015 04:45:00 13.2 C 10.1 g/m*3 13.2 C 0 km/h
59 24-05-2015 04:50:00 13.1 C 10.04 g/m*3 13.1 C 0 km/h
60 24-05-2015 04:55:00 13.1 C 10.04 g/m*3 13.1 C 0 km/h
61 24-05-2015 05:00:00 13.1 C 10.04 g/m*3 13.1 C 0 km/h
62 24-05-2015 05:05:00 13.1 C 10.04 g/m*3 13.1 C 0 km/h
63 24-05-2015 05:10:00 13.2 C 10.1 g/m*3 13.2 C 0 km/h
64 24-05-2015 05:15:00 13.2 C 10.22 g/m*3 13.2 C 0 km/h
65 24-05-2015 05:20:00 13.2 C 10.22 g/m*3 13.2 C 0 km/h
66 24-05-2015 05:25:00 13.2 C 10.22 g/m*3 13.2 C 0 km/h
67 24-05-2015 05:30:00 13.2 C 10.1 g/m*3 13.2 C 3.2 km/h
68 24-05-2015 05:35:00 13.2 C 10.1 g/m*3 13.2 C 1.6 km/h
69 24-05-2015 05:40:00 13.2 C 10.1 g/m*3 13.2 C 0 km/h
70 24-05-2015 05:45:00 13.3 C 10.17 g/m*3 13.3 C 0 km/h
71 24-05-2015 05:50:00 13.3 C 10.17 g/m*3 13.3 C 0 km/h
72 24-05-2015 05:55:00 13.2 C 10.1 g/m*3 13.2 C 0 km/h
73 24-05-2015 06:00:00 13.2 C 10.22 g/m*3 13.2 C 1.6 km/h
74 24-05-2015 06:05:00 13.2 C 10.22 g/m*3 13.2 C 0 km/h
75 24-05-2015 06:10:00 13.2 C 10.22 g/m*3 13.2 C 0 km/h
Sensor: Nr:Datum:Temp:Abs-Feuchte:Windchill:Wind:
Aussen-T/F 76 24-05-2015 06:15:00 13.2 C 10.22 g/m*3 13.2 C 0 km/h
77 24-05-2015 06:20:00 13.2 C 10.22 g/m*3 13.2 C 0 km/h
78 24-05-2015 06:25:00 13.2 C 10.22 g/m*3 13.2 C 0 km/h
79 24-05-2015 06:30:00 13.2 C 10.1 g/m*3 13.2 C 0 km/h
80 24-05-2015 06:35:00 13.2 C 10.1 g/m*3 13.2 C 0 km/h
81 24-05-2015 06:40:00 13.3 C 10.17 g/m*3 13.3 C 0 km/h
82 24-05-2015 06:45:00 13.3 C 10.17 g/m*3 13.3 C 0 km/h
83 24-05-2015 06:50:00 13.3 C 10.17 g/m*3 13.3 C 0 km/h
84 24-05-2015 06:55:00 13.3 C 10.05 g/m*3 13.3 C 0 km/h
85 24-05-2015 07:00:00 13.4 C 10.11 g/m*3 13.4 C 0 km/h
86 24-05-2015 07:05:00 13.4 C 10.11 g/m*3 13.4 C 3.2 km/h
87 24-05-2015 07:10:00 13.5 C 10.18 g/m*3 13.5 C 0 km/h
88 24-05-2015 07:15:00 13.5 C 10.18 g/m*3 13.5 C 0 km/h
89 24-05-2015 07:20:00 13.6 C 10.24 g/m*3 13.6 C 1.6 km/h
90 24-05-2015 07:25:00 13.6 C 10.12 g/m*3 13.6 C 0 km/h
91 24-05-2015 07:30:00 13.7 C 10.3 g/m*3 13.7 C 0 km/h
92 24-05-2015 07:35:00 13.7 C 10.3 g/m*3 13.7 C 0 km/h
93 24-05-2015 07:40:00 13.7 C 10.18 g/m*3 13.7 C 0 km/h
94 24-05-2015 07:45:00 13.7 C 10.18 g/m*3 13.7 C 1.6 km/h
95 24-05-2015 07:50:00 13.8 C 10.37 g/m*3 13.8 C 3.2 km/h
96 24-05-2015 07:55:00 13.8 C 10.25 g/m*3 13.8 C 1.6 km/h
97 24-05-2015 08:00:00 13.8 C 10.25 g/m*3 13.8 C 3.2 km/h
98 24-05-2015 08:05:00 13.8 C 10.25 g/m*3 13.8 C 1.6 km/h
99 24-05-2015 08:10:00 13.9 C 10.31 g/m*3 13.9 C 3.2 km/h
100 24-05-2015 08:15:00 13.9 C 10.31 g/m*3 13.9 C 3.2 km/h
Sensor: Nr:Datum:Temp:Abs-Feuchte:Windchill:Wind:
Aussen-T/F 101 24-05-2015 08:20:00 14 C 10.37 g/m*3 14 C 3.2 km/h
102 24-05-2015 08:25:00 14.1 C 10.44 g/m*3 14.1 C 3.2 km/h
103 24-05-2015 08:30:00 14.1 C 10.44 g/m*3 14.1 C 4.8 km/h
104 24-05-2015 08:35:00 14.2 C 10.5 g/m*3 14.2 C 3.2 km/h
105 24-05-2015 08:40:00 14.2 C 10.38 g/m*3 14.2 C 3.2 km/h
106 24-05-2015 08:45:00 14.2 C 10.38 g/m*3 14.2 C 4.8 km/h
107 24-05-2015 08:50:00 14.3 C 10.44 g/m*3 14.3 C 4.8 km/h
108 24-05-2015 08:55:00 14.3 C 10.44 g/m*3 14.3 C 4.8 km/h
109 24-05-2015 09:00:00 14.3 C 10.44 g/m*3 14.3 C 3.2 km/h
110 24-05-2015 09:05:00 14.4 C 10.38 g/m*3 14.4 C 3.2 km/h
111 24-05-2015 09:10:00 14.4 C 10.38 g/m*3 14.4 C 3.2 km/h
112 24-05-2015 09:15:00 14.5 C 10.45 g/m*3 14.5 C 3.2 km/h
113 24-05-2015 09:20:00 14.6 C 10.51 g/m*3 14.6 C 4.8 km/h
114 24-05-2015 09:25:00 14.7 C 10.45 g/m*3 14.7 C 4.8 km/h
115 24-05-2015 09:30:00 14.7 C 10.45 g/m*3 14.7 C 6.4 km/h
116 24-05-2015 09:35:00 14.8 C 10.39 g/m*3 14.8 C 4.8 km/h
117 24-05-2015 09:40:00 14.8 C 10.51 g/m*3 14.8 C 1.6 km/h
118 24-05-2015 09:45:00 14.9 C 10.45 g/m*3 14.9 C 1.6 km/h
119 24-05-2015 09:50:00 15 C 10.39 g/m*3 15 C 1.6 km/h
120 24-05-2015 09:55:00 15 C 10.39 g/m*3 15 C 3.2 km/h
121 24-05-2015 10:00:00 15.1 C 10.45 g/m*3 15.1 C 3.2 km/h
122 24-05-2015 10:05:00 15 C 10.39 g/m*3 15 C 1.6 km/h
123 24-05-2015 10:10:00 15.1 C 10.45 g/m*3 15.1 C 1.6 km/h
124 24-05-2015 10:15:00 14.9 C 10.32 g/m*3 14.9 C 3.2 km/h
125 24-05-2015 10:20:00 15 C 10.39 g/m*3 15 C 1.6 km/h
Sensor: Nr:Datum:Temp:Abs-Feuchte:Windchill:Wind:
Aussen-T/F 126 24-05-2015 10:25:00 15 C 10.51 g/m*3 15 C 3.2 km/h
127 24-05-2015 10:30:00 15.1 C 10.58 g/m*3 15.1 C 3.2 km/h
128 24-05-2015 10:35:00 15.2 C 10.64 g/m*3 15.2 C 3.2 km/h
129 24-05-2015 10:40:00 15.3 C 10.58 g/m*3 15.3 C 3.2 km/h
130 24-05-2015 10:45:00 15.4 C 10.64 g/m*3 15.4 C 3.2 km/h
131 24-05-2015 10:50:00 15.4 C 10.51 g/m*3 15.4 C 3.2 km/h
132 24-05-2015 10:55:00 15.4 C 10.51 g/m*3 15.4 C 0 km/h
133 24-05-2015 11:00:00 15.4 C 10.38 g/m*3 15.4 C 1.6 km/h
134 24-05-2015 11:05:00 15.4 C 10.51 g/m*3 15.4 C 1.6 km/h
135 24-05-2015 11:10:00 15.6 C 10.64 g/m*3 15.6 C 1.6 km/h
136 24-05-2015 11:15:00 15.7 C 10.7 g/m*3 15.7 C 1.6 km/h
137 24-05-2015 11:20:00 15.8 C 10.77 g/m*3 15.8 C 1.6 km/h
138 24-05-2015 11:25:00 15.9 C 10.7 g/m*3 15.9 C 4.8 km/h
139 24-05-2015 11:30:00 16.1 C 10.83 g/m*3 16.1 C 4.8 km/h
140 24-05-2015 11:35:00 16.2 C 11.03 g/m*3 16.2 C 1.6 km/h
141 24-05-2015 11:40:00 16.4 C 11.03 g/m*3 16.4 C 3.2 km/h
142 24-05-2015 11:45:00 16.6 C 11.02 g/m*3 16.6 C 4.8 km/h
143 24-05-2015 11:50:00 16.7 C 10.94 g/m*3 16.7 C 3.2 km/h
144 24-05-2015 11:55:00 16.9 C 10.79 g/m*3 16.9 C 3.2 km/h
145 24-05-2015 12:00:00 17.1 C 10.92 g/m*3 17.1 C 4.8 km/h
146 24-05-2015 12:05:00 17.2 C 11.28 g/m*3 17.2 C 4.8 km/h
147 24-05-2015 12:10:00 17.4 C 11.12 g/m*3 17.4 C 4.8 km/h
148 24-05-2015 12:15:00 17.7 C 11.16 g/m*3 17.7 C 3.2 km/h
149 24-05-2015 12:20:00 17.7 C 11.16 g/m*3 17.7 C 3.2 km/h
150 24-05-2015 12:25:00 18.1 C 11.74 g/m*3 18.1 C 4.8 km/h
Sensor: Nr:Datum:Temp:Abs-Feuchte:Windchill:Wind:
Aussen-T/F 151 24-05-2015 12:30:00 18.4 C 11.01 g/m*3 18.4 C 3.2 km/h
152 24-05-2015 12:35:00 18.6 C 11.46 g/m*3 18.6 C 4.8 km/h
153 24-05-2015 12:40:00 19.1 C 11.97 g/m*3 19.1 C 4.8 km/h
154 24-05-2015 12:45:00 19.3 C 11.28 g/m*3 19.3 C 4.8 km/h
155 24-05-2015 12:50:00 19.2 C 11.21 g/m*3 19.2 C 6.4 km/h
156 24-05-2015 12:55:00 19.3 C 11.61 g/m*3 19.3 C 6.4 km/h
157 24-05-2015 13:00:00 19.7 C 11.55 g/m*3 19.7 C 8.1 km/h
158 24-05-2015 13:05:00 20.1 C 11.65 g/m*3 20.1 C 8.1 km/h
159 24-05-2015 13:10:00 20.2 C 11.54 g/m*3 20.2 C 6.4 km/h
160 24-05-2015 13:15:00 20.2 C 11.54 g/m*3 20.2 C 6.4 km/h
161 24-05-2015 13:20:00 20.5 C 11.57 g/m*3 20.5 C 6.4 km/h
162 24-05-2015 13:25:00 20.6 C 11.28 g/m*3 20.6 C 6.4 km/h
163 24-05-2015 13:30:00 20.8 C 11.41 g/m*3 20.8 C 8.1 km/h
164 24-05-2015 13:35:00 20.8 C 11.41 g/m*3 20.8 C 8.1 km/h
165 24-05-2015 13:40:00 20.9 C 11.29 g/m*3 20.9 C 8.1 km/h
166 24-05-2015 13:45:00 20.9 C 11.11 g/m*3 20.9 C 6.4 km/h
167 24-05-2015 13:50:00 20.8 C 11.05 g/m*3 20.8 C 8.1 km/h
168 24-05-2015 13:55:00 20.7 C 11.34 g/m*3 20.7 C 3.2 km/h
169 24-05-2015 14:00:00 20.9 C 11.11 g/m*3 20.9 C 6.4 km/h
170 24-05-2015 14:05:00 21.2 C 11.12 g/m*3 21.2 C 8.1 km/h
171 24-05-2015 14:10:00 21.5 C 11.5 g/m*3 21.5 C 6.4 km/h
172 24-05-2015 14:15:00 21.7 C 11.83 g/m*3 21.7 C 4.8 km/h
173 24-05-2015 14:20:00 22 C 10.87 g/m*3 22 C 6.4 km/h
174 24-05-2015 14:25:00 22.1 C 11.13 g/m*3 22.1 C 4.8 km/h
175 24-05-2015 14:30:00 22.6 C 11.25 g/m*3 22.6 C 8.1 km/h
Sensor: Nr:Datum:Temp:Abs-Feuchte:Windchill:Wind:
Aussen-T/F 176 24-05-2015 14:35:00 22.7 C 11.52 g/m*3 22.7 C 9.7 km/h
177 24-05-2015 14:40:00 22.8 C 11.38 g/m*3 22.8 C 6.4 km/h
178 24-05-2015 14:45:00 22.8 C 11.58 g/m*3 22.8 C 4.8 km/h
179 24-05-2015 14:50:00 22.5 C 11.19 g/m*3 22.5 C 4.8 km/h
180 24-05-2015 14:55:00 22.4 C 11.32 g/m*3 22.4 C 8.1 km/h
181 24-05-2015 15:00:00 22.8 C 11.38 g/m*3 22.8 C 8.1 km/h
182 24-05-2015 15:05:00 23.3 C 10.87 g/m*3 23.3 C 6.4 km/h
183 24-05-2015 15:10:00 23.7 C 10.69 g/m*3 23.7 C 4.8 km/h
184 24-05-2015 15:15:00 23.8 C 10.54 g/m*3 23.8 C 6.4 km/h
185 24-05-2015 15:20:00 23.7 C 10.48 g/m*3 23.7 C 6.4 km/h
186 24-05-2015 15:25:00 23.4 C 9.88 g/m*3 23.4 C 8.1 km/h
187 24-05-2015 15:30:00 23.4 C 9.88 g/m*3 23.4 C 6.4 km/h
188 24-05-2015 15:35:00 23.4 C 10.3 g/m*3 23.4 C 11.3 km/h
189 24-05-2015 15:40:00 23.4 C 10.09 g/m*3 23.4 C 11.3 km/h
190 24-05-2015 15:45:00 23.6 C 10 g/m*3 23.6 C 9.7 km/h
191 24-05-2015 15:50:00 23.6 C 9.78 g/m*3 23.6 C 11.3 km/h
192 24-05-2015 15:55:00 23.3 C 10.25 g/m*3 23.3 C 9.7 km/h
193 24-05-2015 16:00:00 23.2 C 10.19 g/m*3 23.2 C 9.7 km/h
194 24-05-2015 16:05:00 23.4 C 10.72 g/m*3 23.4 C 9.7 km/h
195 24-05-2015 16:10:00 23.6 C 10.42 g/m*3 23.6 C 11.3 km/h
196 24-05-2015 16:15:00 23.3 C 10.66 g/m*3 23.3 C 8.1 km/h
197 24-05-2015 16:20:00 23 C 10.69 g/m*3 23 C 6.4 km/h
198 24-05-2015 16:25:00 22.7 C 10.51 g/m*3 22.7 C 6.4 km/h
199 24-05-2015 16:30:00 22.5 C 10.59 g/m*3 22.5 C 9.7 km/h
200 24-05-2015 16:35:00 22.3 C 10.66 g/m*3 22.3 C 8.1 km/h
Sensor: Nr:Datum:Temp:Abs-Feuchte:Windchill:Wind:
Aussen-T/F 201 24-05-2015 16:40:00 22.2 C 10.6 g/m*3 22.2 C 6.4 km/h
202 24-05-2015 16:45:00 22.3 C 11.06 g/m*3 22.3 C 6.4 km/h
203 24-05-2015 16:50:00 22.9 C 11.04 g/m*3 22.9 C 3.2 km/h
204 24-05-2015 16:55:00 23.1 C 10.54 g/m*3 23.1 C 1.6 km/h
205 24-05-2015 17:00:00 23 C 10.69 g/m*3 23 C 0 km/h
206 24-05-2015 17:05:00 22.9 C 11.24 g/m*3 22.9 C 3.2 km/h
207 24-05-2015 17:10:00 22.9 C 10.83 g/m*3 22.9 C 1.6 km/h
208 24-05-2015 17:15:00 22.8 C 10.57 g/m*3 22.8 C 3.2 km/h
209 24-05-2015 17:20:00 22.7 C 10.71 g/m*3 22.7 C 1.6 km/h
210 24-05-2015 17:25:00 22.4 C 10.53 g/m*3 22.4 C 0 km/h
211 24-05-2015 17:30:00 22.3 C 11.65 g/m*3 22.3 C 0 km/h
212 24-05-2015 17:35:00 22.1 C 11.91 g/m*3 22.1 C 1.6 km/h
213 24-05-2015 17:40:00 22.1 C 10.74 g/m*3 22.1 C 6.4 km/h
214 24-05-2015 17:45:00 22.3 C 10.47 g/m*3 22.3 C 8.1 km/h
215 24-05-2015 17:50:00 22.4 C 10.53 g/m*3 22.4 C 4.8 km/h
216 24-05-2015 17:55:00 22.6 C 10.85 g/m*3 22.6 C 6.4 km/h
217 24-05-2015 18:00:00 22.8 C 10.57 g/m*3 22.8 C 8.1 km/h
218 24-05-2015 18:05:00 23 C 10.89 g/m*3 23 C 6.4 km/h
219 24-05-2015 18:10:00 23.3 C 10.45 g/m*3 23.3 C 8.1 km/h
220 24-05-2015 18:15:00 23.4 C 10.93 g/m*3 23.4 C 8.1 km/h
221 24-05-2015 18:20:00 23.6 C 10.85 g/m*3 23.6 C 9.7 km/h
222 24-05-2015 18:25:00 23.3 C 10.45 g/m*3 23.3 C 9.7 km/h
223 24-05-2015 18:30:00 23.4 C 10.72 g/m*3 23.4 C 8.1 km/h
224 24-05-2015 18:35:00 23.3 C 10.87 g/m*3 23.3 C 8.1 km/h
225 24-05-2015 18:40:00 22.9 C 10.63 g/m*3 22.9 C 8.1 km/h
Sensor: Nr:Datum:Temp:Abs-Feuchte:Windchill:Wind:
Aussen-T/F 226 24-05-2015 18:45:00 22.6 C 10.85 g/m*3 22.6 C 6.4 km/h
227 24-05-2015 18:50:00 22.3 C 10.47 g/m*3 22.3 C 4.8 km/h
228 24-05-2015 18:55:00 22 C 10.67 g/m*3 22 C 6.4 km/h
229 24-05-2015 19:00:00 21.6 C 10.43 g/m*3 21.6 C 9.7 km/h
230 24-05-2015 19:05:00 21.3 C 10.44 g/m*3 21.3 C 4.8 km/h
231 24-05-2015 19:10:00 21 C 10.44 g/m*3 21 C 4.8 km/h
232 24-05-2015 19:15:00 20.8 C 10.5 g/m*3 20.8 C 8.1 km/h
233 24-05-2015 19:20:00 20.6 C 10.56 g/m*3 20.6 C 6.4 km/h
234 24-05-2015 19:25:00 20.4 C 10.61 g/m*3 20.4 C 4.8 km/h
235 24-05-2015 19:30:00 20.3 C 10.73 g/m*3 20.3 C 3.2 km/h
236 24-05-2015 19:35:00 20.1 C 10.95 g/m*3 20.1 C 3.2 km/h
237 24-05-2015 19:40:00 19.8 C 11.1 g/m*3 19.8 C 1.6 km/h
238 24-05-2015 19:45:00 19.7 C 10.53 g/m*3 19.7 C 4.8 km/h
239 24-05-2015 19:50:00 19.6 C 10.47 g/m*3 19.6 C 3.2 km/h
240 24-05-2015 19:55:00 19.6 C 10.8 g/m*3 19.6 C 3.2 km/h
241 24-05-2015 20:00:00 19.4 C 11.35 g/m*3 19.4 C 0 km/h
242 24-05-2015 20:05:00 19 C 11.24 g/m*3 19 C 0 km/h
243 24-05-2015 20:10:00 18.6 C 11.3 g/m*3 18.6 C 0 km/h
244 24-05-2015 20:15:00 18.3 C 11.26 g/m*3 18.3 C 0 km/h
245 24-05-2015 20:20:00 18.1 C 11.28 g/m*3 18.1 C 1.6 km/h
246 24-05-2015 20:25:00 17.8 C 11.38 g/m*3 17.8 C 0 km/h
247 24-05-2015 20:30:00 17.7 C 11.47 g/m*3 17.7 C 0 km/h
248 24-05-2015 20:35:00 17.4 C 11.86 g/m*3 17.4 C 1.6 km/h
249 24-05-2015 20:40:00 17.3 C 11.93 g/m*3 17.3 C 1.6 km/h
250 24-05-2015 20:45:00 17.1 C 11.94 g/m*3 17.1 C 1.6 km/h
Sensor: Nr:Datum:Temp:Abs-Feuchte:Windchill:Wind:
Aussen-T/F 251 24-05-2015 20:50:00 16.9 C 11.79 g/m*3 16.9 C 1.6 km/h
252 24-05-2015 20:55:00 16.7 C 11.8 g/m*3 16.7 C 1.6 km/h
253 24-05-2015 21:00:00 16.6 C 11.87 g/m*3 16.6 C 1.6 km/h
254 24-05-2015 21:05:00 16.4 C 11.86 g/m*3 16.4 C 1.6 km/h
255 24-05-2015 21:10:00 16.3 C 11.79 g/m*3 16.3 C 1.6 km/h
256 24-05-2015 21:15:00 16.3 C 11.65 g/m*3 16.3 C 1.6 km/h
257 24-05-2015 21:20:00 16.2 C 11.72 g/m*3 16.2 C 1.6 km/h
258 24-05-2015 21:25:00 16.1 C 11.65 g/m*3 16.1 C 1.6 km/h
259 24-05-2015 21:30:00 16 C 11.58 g/m*3 16 C 3.2 km/h
260 24-05-2015 21:35:00 16.1 C 11.93 g/m*3 16.1 C 4.8 km/h
261 24-05-2015 21:40:00 16.2 C 11.86 g/m*3 16.2 C 1.6 km/h
262 24-05-2015 21:45:00 16.2 C 12 g/m*3 16.2 C 8.1 km/h
263 24-05-2015 21:50:00 16.1 C 11.93 g/m*3 16.1 C 8.1 km/h
264 24-05-2015 21:55:00 16.1 C 11.93 g/m*3 16.1 C 1.6 km/h
265 24-05-2015 22:00:00 15.9 C 12.05 g/m*3 15.9 C 0 km/h
266 24-05-2015 22:05:00 15.8 C 12.11 g/m*3 15.8 C 0 km/h
267 24-05-2015 22:10:00 15.7 C 12.18 g/m*3 15.7 C 1.6 km/h
268 24-05-2015 22:15:00 15.4 C 11.96 g/m*3 15.4 C 1.6 km/h
269 24-05-2015 22:20:00 15.3 C 12.01 g/m*3 15.3 C 1.6 km/h
270 24-05-2015 22:25:00 15.2 C 11.94 g/m*3 15.2 C 1.6 km/h
271 24-05-2015 22:30:00 15.1 C 11.87 g/m*3 15.1 C 1.6 km/h
272 24-05-2015 22:35:00 15 C 11.93 g/m*3 15 C 1.6 km/h
273 24-05-2015 22:40:00 14.9 C 11.85 g/m*3 14.9 C 1.6 km/h
274 24-05-2015 22:45:00 14.8 C 11.78 g/m*3 14.8 C 1.6 km/h
275 24-05-2015 22:50:00 14.8 C 11.78 g/m*3 14.8 C 0 km/h
Sensor: Nr:Datum:Temp:Abs-Feuchte:Windchill:Wind:
Aussen-T/F 276 24-05-2015 22:55:00 14.7 C 11.71 g/m*3 14.7 C 1.6 km/h
277 24-05-2015 23:00:00 14.7 C 11.71 g/m*3 14.7 C 0 km/h
278 24-05-2015 23:05:00 14.6 C 11.76 g/m*3 14.6 C 0 km/h
279 24-05-2015 23:10:00 14.6 C 11.76 g/m*3 14.6 C 1.6 km/h
280 24-05-2015 23:15:00 14.6 C 11.76 g/m*3 14.6 C 0 km/h
281 24-05-2015 23:40:00 14.4 C 11.62 g/m*3 14.4 C 0 km/h
282 24-05-2015 23:45:00 14.4 C 11.62 g/m*3 14.4 C 1.6 km/h
283 24-05-2015 23:50:00 14.4 C 11.62 g/m*3 14.4 C 0 km/h
284 24-05-2015 23:55:00 14.4 C 11.62 g/m*3 14.4 C 0 km/h

Legende:
   Min
   Max


Maximal/Minimal-Werte vom 24.05.2015 - 24.05.2015

Sensor Min Max Avg
Temp
(Aussen-T/F)
13.1 °C
24-05-2015  04:50:00
23.8 °C
24-05-2015  15:15:00
17.03 °C
Abs-Feuchte
(Aussen-T/F)
9.78 g/m*3
24-05-2015  15:50:00
12.18 g/m*3
24-05-2015  22:10:00
10.72 g/m*3
Windchill
(Aussen-T/F)
13.1 C
24-05-2015  04:50:00
23.8 C
24-05-2015  15:15:00
16.97 C

Die Daten stammen von einer Davis Vantage Pro 2 Wetter-Station und werden unter Linux mit der Software wview2wettercgi und aufbereitet. Alle Angaben erfolgen ohne Gewähr für ihre Vollständigkeit oder Richtigkeit.
Kontakt: Rainer Krienke krienke@uni-koblenz.de . Meine Webseiten an der Uni Koblenz oder privat.
Version: $Revision: 0.78 $